createdAt,value
2023-02-27T07:49:12.966Z,44.60
2023-02-27T08:04:17.649Z,47.20
2023-02-27T08:19:22.269Z,44.90
2023-02-27T08:34:26.883Z,44.40
2023-02-27T08:49:31.413Z,42.70
2023-02-27T09:04:36.118Z,41.80
2023-02-27T09:19:40.674Z,41.20
2023-02-27T09:34:45.187Z,40.70
2023-02-27T09:50:02.719Z,40.70
2023-02-27T10:05:20.128Z,40.40
2023-02-27T10:20:28.590Z,40.00
2023-02-27T10:35:35.438Z,40.00
2023-02-27T10:50:42.804Z,39.80
2023-02-27T11:05:55.406Z,39.70
2023-02-27T11:21:18.042Z,39.50
2023-02-27T11:36:23.872Z,40.20
2023-02-27T11:51:42.181Z,39.60
2023-02-27T12:06:53.020Z,39.50
2023-02-27T12:22:00.436Z,39.60
2023-02-27T12:37:10.660Z,43.80
2023-02-27T12:52:24.770Z,42.50
2023-02-27T13:07:34.718Z,41.80
2023-02-27T13:22:44.777Z,41.60
2023-02-27T13:37:54.233Z,41.30
2023-02-27T13:53:10.276Z,45.80
2023-02-27T14:08:20.699Z,45.90
2023-02-27T14:23:27.857Z,45.80
2023-02-27T14:38:34.633Z,44.60
2023-02-27T14:53:39.625Z,43.70
2023-02-27T15:08:49.107Z,43.20
2023-02-27T15:23:57.675Z,42.70
2023-02-27T15:39:07.727Z,42.30
2023-02-27T15:54:12.582Z,42.30
2023-02-27T16:09:23.160Z,42.00
2023-02-27T16:24:32.782Z,41.90
2023-02-27T16:39:37.318Z,41.80
2023-02-27T16:54:41.925Z,45.00
2023-02-27T17:09:47.713Z,45.40
2023-02-27T17:24:52.390Z,45.40
2023-02-27T17:39:56.943Z,45.30
2023-02-27T17:55:03.381Z,44.40
2023-02-27T18:10:10.036Z,43.70
2023-02-27T18:25:16.678Z,43.20
2023-02-27T18:40:24.529Z,42.80
2023-02-27T18:55:29.113Z,42.50
2023-02-27T19:10:34.896Z,42.50
2023-02-27T19:25:39.413Z,42.20
2023-02-27T19:40:44.013Z,42.10
2023-02-27T19:55:48.524Z,41.90
2023-02-27T20:10:57.350Z,41.80
